Time;durP1;ratioP1;P1;durP2;ratioP2;P2;SDS_P1;SDS_P2;PMS_P1;PMS_P2;Temp;Humidity;BMP_temperature;BMP_pressure;BME280_temperature;BME280_humidity;BME280_pressure;Samples;Min_cycle;Max_cycle;Signal;HPM_P1;HPM_P2
2022/03/22 00:01:30;;;;;;;7.07;4.38;;;0.30;99.80;;;;;;5069649;28;20182;-73
2022/03/22 00:03:56;;;;;;;9.02;4.68;;;0.20;99.90;;;;;;5069931;28;20195;-72
2022/03/22 00:06:22;;;;;;;11.68;4.10;;;0.20;99.90;;;;;;5069671;28;20160;-73
2022/03/22 00:08:48;;;;;;;9.05;4.72;;;0.20;99.90;;;;;;5069525;28;20211;-73
2022/03/22 00:11:16;;;;;;;9.93;4.72;;;0.30;99.90;;;;;;5069563;28;20185;-72
2022/03/22 00:13:45;;;;;;;8.13;4.00;;;0.20;99.90;;;;;;5069821;28;20798;-73
2022/03/22 00:16:12;;;;;;;8.82;4.18;;;0.10;99.90;;;;;;5069961;28;20243;-73
2022/03/22 00:18:39;;;;;;;8.00;4.40;;;0.00;99.90;;;;;;5068687;28;20153;-72
2022/03/22 00:21:06;;;;;;;8.07;4.68;;;-0.10;99.90;;;;;;5069455;28;20188;-72
2022/03/22 00:23:33;;;;;;;9.25;4.53;;;-0.10;99.90;;;;;;5069629;28;20531;-73
2022/03/22 00:25:59;;;;;;;6.95;3.72;;;-0.20;99.90;;;;;;5069531;28;20662;-73
2022/03/22 00:28:25;;;;;;;9.02;4.63;;;-0.40;99.90;;;;;;5068551;28;20157;-74
2022/03/22 00:30:50;;;;;;;8.07;4.72;;;-0.50;99.90;;;;;;5068753;28;20151;-73
2022/03/22 00:33:16;;;;;;;6.45;3.97;;;-0.60;99.90;;;;;;5069491;28;20169;-73
2022/03/22 00:35:42;;;;;;;9.43;4.47;;;-0.70;99.90;;;;;;5069603;28;20176;-73
2022/03/22 00:38:11;;;;;;;12.32;4.18;;;-0.70;99.90;;;;;;5068969;28;20168;-73
2022/03/22 00:40:38;;;;;;;10.60;4.80;;;-0.90;99.90;;;;;;5069294;28;20161;-73
2022/03/22 00:43:05;;;;;;;7.47;4.13;;;-1.00;99.90;;;;;;5069374;28;20549;-73
2022/03/22 00:45:36;;;;;;;9.85;4.80;;;-1.00;99.90;;;;;;5069429;28;20153;-73
2022/03/22 00:48:05;;;;;;;12.90;4.88;;;-1.10;99.90;;;;;;5069396;28;20200;-73
2022/03/22 00:50:40;;;;;;;7.72;4.43;;;-1.10;99.90;;;;;;5068648;28;20191;-73
2022/03/22 00:53:08;;;;;;;8.07;4.25;;;-1.10;99.90;;;;;;5069192;28;20171;-73
2022/03/22 00:55:35;;;;;;;11.88;5.32;;;-1.20;99.90;;;;;;5069328;28;20157;-74
2022/03/22 00:58:02;;;;;;;9.20;4.22;;;-1.30;99.90;;;;;;5068833;28;20219;-73
2022/03/22 01:00:29;;;;;;;9.43;4.43;;;-1.30;99.90;;;;;;5068474;28;20204;-73
2022/03/22 01:02:58;;;;;;;8.43;4.97;;;-1.40;99.90;;;;;;5051264;28;20617;-73
2022/03/22 01:05:26;;;;;;;9.10;4.50;;;-1.60;99.90;;;;;;5069131;28;20174;-73
2022/03/22 01:08:02;;;;;;;13.60;5.07;;;-1.70;99.90;;;;;;5069025;28;20165;-73
2022/03/22 01:10:30;;;;;;;16.10;4.63;;;-1.70;99.90;;;;;;5068320;28;20188;-73
2022/03/22 01:12:56;;;;;;;7.93;4.93;;;-1.70;99.90;;;;;;5069119;28;20244;-73
2022/03/22 01:15:32;;;;;;;15.85;5.32;;;-1.60;99.90;;;;;;5069039;28;20517;-72
2022/03/22 01:18:05;;;;;;;6.60;4.90;;;-1.60;99.90;;;;;;5069061;28;20161;-73
2022/03/22 01:20:33;;;;;;;9.30;4.35;;;-1.70;99.90;;;;;;5068257;28;20283;-74
2022/03/22 01:23:00;;;;;;;12.20;4.88;;;-1.70;99.90;;;;;;5068868;28;20342;-74
2022/03/22 01:25:27;;;;;;;7.45;4.65;;;-1.70;99.90;;;;;;5051180;28;20636;-74
2022/03/22 01:27:54;;;;;;;10.00;5.75;;;-1.70;99.90;;;;;;5068896;28;20229;-74
2022/03/22 01:30:22;;;;;;;16.65;4.57;;;-1.80;99.90;;;;;;5068544;28;20251;-74
2022/03/22 01:32:52;;;;;;;7.88;4.75;;;-1.90;99.90;;;;;;5068315;28;20157;-72
2022/03/22 01:35:19;;;;;;;8.68;4.35;;;-1.80;99.90;;;;;;5050812;28;20173;-73
2022/03/22 01:37:47;;;;;;;9.27;4.50;;;-1.90;99.90;;;;;;5068811;28;20165;-73
2022/03/22 01:40:15;;;;;;;14.45;5.30;;;-2.00;99.90;;;;;;5068674;28;20193;-73
2022/03/22 01:42:41;;;;;;;5.18;3.97;;;-2.00;99.90;;;;;;5069980;28;20202;-73
2022/03/22 01:45:09;;;;;;;8.85;4.65;;;-1.90;99.90;;;;;;5072683;28;20160;-73
2022/03/22 01:47:40;;;;;;;9.23;4.78;;;-1.90;99.90;;;;;;5072702;28;20165;-72
2022/03/22 01:50:11;;;;;;;6.80;4.68;;;-1.90;99.90;;;;;;5072615;28;20191;-73
2022/03/22 01:52:43;;;;;;;11.32;4.72;;;-1.70;99.90;;;;;;5072066;28;20239;-72
2022/03/22 01:55:11;;;;;;;8.18;4.00;;;-1.80;99.90;;;;;;5072422;28;20169;-72
2022/03/22 01:57:37;;;;;;;16.60;4.80;;;-1.90;99.90;;;;;;5072304;28;20224;-73
2022/03/22 02:00:08;;;;;;;11.00;4.78;;;-1.90;99.90;;;;;;5072282;28;20271;-73
2022/03/22 02:08:10;;;;;;;7.82;3.72;;;-2.00;99.90;;;;;;5072419;28;20172;-74
2022/03/22 02:10:37;;;;;;;6.32;3.72;;;-2.00;99.90;;;;;;5072216;28;20157;-74
2022/03/22 02:13:03;;;;;;;5.90;3.70;;;-2.10;99.90;;;;;;5071511;28;20207;-73
2022/03/22 02:15:29;;;;;;;6.70;3.65;;;-2.20;99.90;;;;;;5072176;28;20164;-73
2022/03/22 02:17:55;;;;;;;6.47;3.40;;;-2.20;99.90;;;;;;5072128;28;20160;-74
2022/03/22 02:20:21;;;;;;;11.65;3.80;;;-2.30;99.90;;;;;;5072045;28;20204;-72
2022/03/22 02:22:58;;;;;;;9.02;4.40;;;-2.40;99.90;;;;;;5071609;28;20184;-73
2022/03/22 02:25:24;;;;;;;7.18;3.80;;;-2.40;99.90;;;;;;5071835;28;20164;-73
2022/03/22 02:27:54;;;;;;;8.68;3.75;;;-2.50;99.90;;;;;;5071879;28;20153;-73
2022/03/22 02:30:21;;;;;;;5.13;3.58;;;-2.50;99.90;;;;;;5071811;28;20184;-72
2022/03/22 02:32:55;;;;;;;7.50;3.92;;;-2.50;99.90;;;;;;5071770;28;20156;-73
2022/03/22 02:35:22;;;;;;;11.68;4.40;;;-2.40;99.90;;;;;;5053242;28;20180;-73
2022/03/22 02:37:48;;;;;;;5.50;3.25;;;-2.40;99.90;;;;;;5071719;28;20164;-73
2022/03/22 02:40:15;;;;;;;8.07;3.97;;;-2.40;99.90;;;;;;5071542;28;20566;-73
2022/03/22 02:42:50;;;;;;;5.00;3.30;;;-2.30;99.90;;;;;;5071800;28;20215;-72
2022/03/22 02:45:18;;;;;;;7.85;3.53;;;-2.40;99.90;;;;;;5070981;28;20156;-73
2022/03/22 02:47:45;;;;;;;5.25;3.92;;;-2.40;99.90;;;;;;5071504;28;20232;-72
2022/03/22 02:50:12;;;;;;;5.28;3.63;;;-2.30;99.90;;;;;;5071355;28;20184;-72
2022/03/22 02:52:39;;;;;;;6.70;3.25;;;-2.20;99.90;;;;;;5071454;28;20160;-72
2022/03/22 02:55:06;;;;;;;5.53;3.13;;;-2.00;99.90;;;;;;5069986;28;20165;-73
2022/03/22 02:57:37;;;;;;;6.80;3.63;;;-2.10;99.90;;;;;;5071365;28;20216;-72
2022/03/22 03:00:06;;;;;;;6.15;2.95;;;-2.10;99.90;;;;;;5071313;28;20197;-72
2022/03/22 03:02:32;;;;;;;4.68;2.70;;;-2.10;99.90;;;;;;5071280;28;20204;-72
2022/03/22 03:04:58;;;;;;;6.82;3.45;;;-2.00;99.90;;;;;;5070603;28;20589;-72
2022/03/22 03:07:24;;;;;;;6.53;3.60;;;-2.10;99.90;;;;;;5071119;28;20161;-71
2022/03/22 03:09:50;;;;;;;5.32;2.60;;;-2.30;99.90;;;;;;5070776;28;20189;-72
2022/03/22 03:12:16;;;;;;;6.20;2.80;;;-2.30;99.90;;;;;;5070999;28;20161;-72
2022/03/22 03:14:43;;;;;;;6.15;3.00;;;-2.30;99.90;;;;;;5071119;28;20171;-72
2022/03/22 03:17:13;;;;;;;7.10;4.20;;;-2.40;99.90;;;;;;5070324;28;20220;-72
2022/03/22 03:19:40;;;;;;;6.25;3.83;;;-2.30;99.90;;;;;;5070814;28;20196;-73
2022/03/22 03:22:07;;;;;;;5.85;3.30;;;-2.30;99.90;;;;;;5070824;28;20193;-73
2022/03/22 03:24:33;;;;;;;5.47;3.30;;;-2.20;99.90;;;;;;5070811;28;20153;-72
2022/03/22 03:26:59;;;;;;;8.52;3.92;;;-2.20;99.90;;;;;;5070279;28;20153;-73
2022/03/22 03:29:25;;;;;;;6.90;3.67;;;-2.30;99.90;;;;;;5069216;28;20695;-72
2022/03/22 03:31:51;;;;;;;9.23;4.20;;;-2.40;99.90;;;;;;5070656;28;20157;-72
2022/03/22 03:34:18;;;;;;;7.85;3.25;;;-2.30;99.90;;;;;;5070515;28;20165;-73
2022/03/22 03:36:44;;;;;;;6.00;3.72;;;-2.20;99.90;;;;;;5070056;28;20161;-73
2022/03/22 03:39:11;;;;;;;7.20;3.85;;;-2.10;99.90;;;;;;5070494;28;20188;-73
2022/03/22 03:41:53;;;;;;;8.27;3.83;;;-2.00;99.90;;;;;;5070237;28;20200;-72
2022/03/22 03:47:13;;;;;;;5.47;2.95;;;-2.10;99.90;;;;;;5069112;28;20656;-73
2022/03/22 03:49:43;;;;;;;6.38;4.10;;;-2.20;99.90;;;;;;5070038;28;20157;-72
2022/03/22 03:52:11;;;;;;;4.15;2.88;;;-2.30;99.90;;;;;;5070243;28;20203;-73
2022/03/22 03:54:38;;;;;;;6.60;3.60;;;-2.40;99.90;;;;;;5070212;28;20169;-72
2022/03/22 03:57:05;;;;;;;5.68;3.40;;;-2.50;99.90;;;;;;5069793;28;20168;-72
2022/03/22 03:59:31;;;;;;;5.75;3.10;;;-2.60;99.90;;;;;;5069917;28;20169;-72
2022/03/22 04:01:57;;;;;;;8.00;4.05;;;-2.60;99.90;;;;;;5070024;28;20206;-73
2022/03/22 04:04:23;;;;;;;7.13;4.13;;;-2.40;99.90;;;;;;5070021;28;20161;-72
2022/03/22 04:06:49;;;;;;;8.82;3.90;;;-2.50;99.90;;;;;;5069946;28;20254;-72
2022/03/22 04:09:15;;;;;;;6.75;3.35;;;-2.50;99.90;;;;;;5069289;28;20224;-72
2022/03/22 04:11:43;;;;;;;9.10;3.75;;;-2.60;99.90;;;;;;5069776;28;20725;-73
2022/03/22 04:14:09;;;;;;;7.68;4.20;;;-2.60;99.90;;;;;;5069944;28;20186;-72
2022/03/22 04:16:36;;;;;;;7.90;3.95;;;-2.60;99.90;;;;;;5069695;28;20165;-73
2022/03/22 04:19:04;;;;;;;8.32;3.40;;;-2.60;99.90;;;;;;5069200;28;20173;-72
2022/03/22 04:21:30;;;;;;;9.68;3.80;;;-2.70;99.90;;;;;;5069528;28;20188;-72
2022/03/22 04:23:56;;;;;;;7.22;4.32;;;-2.80;99.90;;;;;;5069720;28;20145;-72
2022/03/22 04:26:21;;;;;;;8.40;3.72;;;-2.80;99.90;;;;;;5069629;28;20157;-73
2022/03/22 04:34:18;;;;;;;5.70;3.65;;;-2.90;99.90;;;;;;5069338;28;20179;-72
2022/03/22 04:36:44;;;;;;;4.82;3.30;;;-2.90;99.90;;;;;;5069372;28;20160;-74
2022/03/22 04:39:10;;;;;;;15.07;3.08;;;-3.00;99.90;;;;;;5068845;28;20171;-72
2022/03/22 04:41:35;;;;;;;7.93;4.13;;;-3.00;99.90;;;;;;5068934;28;20215;-72
2022/03/22 04:44:01;;;;;;;7.53;3.88;;;-3.00;99.90;;;;;;5051274;28;20164;-73
2022/03/22 04:46:27;;;;;;;8.05;4.15;;;-2.80;99.90;;;;;;5069318;28;20171;-72
2022/03/22 04:48:53;;;;;;;5.25;3.50;;;-2.80;99.90;;;;;;5069230;28;20256;-73
2022/03/22 04:56:48;;;;;;;7.38;3.13;;;-2.80;99.90;;;;;;5069200;28;20207;-72
2022/03/22 04:59:23;;;;;;;10.48;3.30;;;-2.80;99.90;;;;;;5068955;28;20224;-73
2022/03/22 05:01:50;;;;;;;4.03;3.08;;;-2.90;99.90;;;;;;5068333;28;20214;-73
2022/03/22 05:04:16;;;;;;;5.28;3.55;;;-2.70;99.90;;;;;;5051368;28;20169;-73
2022/03/22 05:06:42;;;;;;;5.05;3.42;;;-2.50;99.90;;;;;;5069102;28;20153;-73
2022/03/22 05:09:10;;;;;;;4.45;2.92;;;-2.50;99.90;;;;;;5068865;28;20248;-74
2022/03/22 05:11:37;;;;;;;4.85;3.42;;;-2.50;99.90;;;;;;5068282;28;20192;-72
2022/03/22 05:14:03;;;;;;;4.97;3.15;;;-2.60;99.90;;;;;;5069034;28;20161;-73
2022/03/22 05:16:33;;;;;;;5.20;3.47;;;-2.50;99.90;;;;;;5068519;28;20160;-73
2022/03/22 05:18:59;;;;;;;7.93;3.60;;;-2.40;99.90;;;;;;5068745;28;20231;-72
2022/03/22 05:21:26;;;;;;;7.30;3.15;;;-2.40;99.90;;;;;;5067715;28;20208;-73
2022/03/22 05:23:52;;;;;;;8.60;3.92;;;-2.30;99.90;;;;;;5068534;28;20231;-72
2022/03/22 05:26:19;;;;;;;7.53;3.10;;;-2.20;99.90;;;;;;5068647;28;20165;-73
2022/03/22 05:28:45;;;;;;;6.13;2.83;;;-2.10;99.90;;;;;;5068718;28;20229;-73
2022/03/22 05:31:12;;;;;;;5.47;3.20;;;-2.10;99.90;;;;;;5068662;28;20257;-72
2022/03/22 05:33:39;;;;;;;7.53;3.20;;;-2.00;99.90;;;;;;5068245;28;20251;-72
2022/03/22 05:36:06;;;;;;;9.13;3.60;;;-1.80;99.90;;;;;;5068644;28;20168;-73
2022/03/22 05:38:33;;;;;;;9.40;4.13;;;-1.50;99.90;;;;;;5068607;28;20160;-73
2022/03/22 05:41:03;;;;;;;11.00;4.88;;;-1.00;99.90;;;;;;5068472;28;20200;-72
2022/03/22 05:43:30;;;;;;;8.55;4.45;;;-0.40;99.90;;;;;;5067873;28;20195;-72
2022/03/22 05:45:57;;;;;;;11.18;4.68;;;0.20;99.90;;;;;;5068575;28;20165;-72
2022/03/22 05:48:26;;;;;;;7.80;4.05;;;0.30;99.90;;;;;;5068469;28;20276;-72
2022/03/22 05:50:52;;;;;;;11.98;5.88;;;0.50;99.90;;;;;;5068448;28;20189;-72
2022/03/22 05:53:18;;;;;;;6.72;4.57;;;0.80;99.90;;;;;;5067673;28;20165;-72
2022/03/22 05:55:44;;;;;;;14.88;4.82;;;0.90;99.90;;;;;;5068381;28;20161;-72
2022/03/22 05:58:10;;;;;;;16.60;5.22;;;0.80;99.90;;;;;;5068114;28;20251;-73
2022/03/22 06:00:36;;;;;;;14.63;5.95;;;0.90;99.90;;;;;;5068286;28;20193;-73
2022/03/22 06:03:02;;;;;;;10.25;5.60;;;0.90;99.90;;;;;;5068218;28;20203;-73
2022/03/22 06:05:29;;;;;;;14.38;6.85;;;0.80;99.90;;;;;;5067761;28;20161;-73
2022/03/22 06:07:56;;;;;;;17.67;7.72;;;0.60;99.90;;;;;;5068104;28;20164;-73
2022/03/22 06:10:22;;;;;;;14.15;6.10;;;0.60;99.90;;;;;;5067984;28;20153;-73
2022/03/22 06:12:51;;;;;;;13.20;6.38;;;0.60;99.90;;;;;;5068153;28;20176;-72
2022/03/22 06:15:23;;;;;;;8.30;5.80;;;0.70;99.90;;;;;;5033446;28;20187;-73
2022/03/22 06:17:51;;;;;;;11.00;5.88;;;0.80;99.90;;;;;;5067927;28;20164;-73
2022/03/22 06:20:19;;;;;;;17.25;7.30;;;0.70;99.90;;;;;;5067888;28;20176;-73
2022/03/22 06:22:46;;;;;;;9.07;5.60;;;0.80;99.90;;;;;;5067818;28;20199;-73
2022/03/22 06:25:16;;;;;;;11.25;5.97;;;0.90;99.90;;;;;;5067368;28;20239;-73
2022/03/22 06:27:44;;;;;;;11.07;6.47;;;1.00;99.90;;;;;;5067815;28;20157;-72
2022/03/22 06:30:13;;;;;;;14.52;6.78;;;1.80;99.90;;;;;;5070069;28;20169;-73
2022/03/22 06:32:45;;;;;;;15.10;7.65;;;2.70;99.20;;;;;;5071506;28;20200;-73
2022/03/22 06:35:12;;;;;;;17.60;6.80;;;2.70;99.00;;;;;;5070911;28;20579;-73
2022/03/22 06:37:39;;;;;;;12.18;6.45;;;2.40;99.40;;;;;;5071438;28;20161;-73
2022/03/22 06:40:07;;;;;;;18.05;6.93;;;2.20;99.60;;;;;;5071266;28;20165;-72
2022/03/22 06:42:34;;;;;;;15.70;6.75;;;2.20;99.80;;;;;;5071306;28;20267;-74
2022/03/22 06:45:00;;;;;;;13.27;6.88;;;2.30;99.60;;;;;;5070899;28;20164;-72
2022/03/22 06:47:26;;;;;;;11.23;6.28;;;2.60;99.50;;;;;;5070299;28;20599;-73
2022/03/22 06:49:52;;;;;;;19.83;6.95;;;2.80;98.60;;;;;;5071045;28;20171;-75
2022/03/22 06:52:18;;;;;;;18.45;7.05;;;3.50;97.90;;;;;;5070903;28;20196;-75
2022/03/22 06:54:44;;;;;;;16.65;7.20;;;3.40;97.80;;;;;;5071117;28;20248;-74
2022/03/22 06:57:09;;;;;;;15.80;7.47;;;3.20;98.00;;;;;;5070249;28;20220;-74
2022/03/22 06:59:35;;;;;;;13.68;7.85;;;3.20;98.40;;;;;;5071085;28;20224;-74
2022/03/22 07:02:01;;;;;;;17.13;7.18;;;3.30;98.40;;;;;;5070891;28;20207;-73
2022/03/22 07:04:27;;;;;;;16.13;7.65;;;4.90;96.80;;;;;;5071053;28;20153;-73
2022/03/22 07:06:54;;;;;;;16.98;7.50;;;6.60;94.70;;;;;;5070479;28;20530;-74
2022/03/22 07:09:21;;;;;;;17.77;7.97;;;8.20;92.00;;;;;;5071016;28;20191;-74
2022/03/22 07:11:49;;;;;;;21.23;8.73;;;8.90;90.40;;;;;;5070686;28;20192;-73
2022/03/22 07:14:21;;;;;;;17.55;8.50;;;7.70;91.70;;;;;;5070928;28;20220;-74
2022/03/22 07:16:47;;;;;;;18.60;8.70;;;6.90;92.70;;;;;;5070405;28;20148;-74
2022/03/22 07:19:17;;;;;;;18.33;8.20;;;6.20;93.40;;;;;;5070608;28;20561;-74
2022/03/22 07:21:44;;;;;;;17.50;8.02;;;5.50;94.30;;;;;;5070535;28;20185;-73
2022/03/22 07:24:12;;;;;;;18.38;8.55;;;5.30;95.00;;;;;;5070631;28;20183;-72
2022/03/22 07:26:40;;;;;;;16.20;7.43;;;5.40;94.80;;;;;;5070615;28;20149;-73
2022/03/22 07:29:06;;;;;;;11.82;7.00;;;5.30;94.20;;;;;;5069798;28;20176;-72
2022/03/22 07:31:38;;;;;;;10.63;6.03;;;5.30;94.30;;;;;;5070168;28;20181;-73
2022/03/22 07:34:15;;;;;;;25.50;8.50;;;5.50;94.60;;;;;;5070128;28;20161;-73
2022/03/22 07:36:42;;;;;;;11.32;6.55;;;5.70;94.50;;;;;;5070597;28;20160;-75
2022/03/22 07:39:09;;;;;;;8.40;6.80;;;6.10;94.20;;;;;;5069910;28;20224;-72
2022/03/22 07:41:37;;;;;;;14.48;7.00;;;6.50;93.70;;;;;;5069930;28;20196;-73
2022/03/22 07:44:04;;;;;;;20.58;7.85;;;7.00;93.30;;;;;;5070139;28;20212;-72
2022/03/22 07:46:30;;;;;;;14.05;7.78;;;7.60;92.60;;;;;;5070430;28;20157;-72
2022/03/22 07:52:58;;;;;;;18.88;7.57;;;9.40;91.50;;;;;;5067059;28;20204;-72
2022/03/22 07:54:30;;;;;;;19.83;8.55;;;13.70;81.00;;;;;;5069543;28;20164;-72
2022/03/22 07:56:57;;;;;;;16.65;9.10;;;13.90;81.10;;;;;;5070050;28;20561;-72
2022/03/22 07:59:27;;;;;;;17.10;9.27;;;15.10;80.00;;;;;;5069888;28;20315;-72
2022/03/22 08:01:53;;;;;;;17.80;8.32;;;16.30;75.80;;;;;;5069599;28;20212;-72
2022/03/22 08:04:19;;;;;;;16.65;9.27;;;16.50;75.50;;;;;;5067816;28;20220;-72
2022/03/22 08:06:45;;;;;;;18.80;8.70;;;16.50;74.50;;;;;;5068852;28;20168;-72
2022/03/22 08:09:12;;;;;;;19.25;8.23;;;16.20;75.70;;;;;;5069966;28;20160;-73
2022/03/22 08:11:39;;;;;;;19.60;8.25;;;16.00;75.10;;;;;;5068517;28;20173;-72
2022/03/22 08:14:06;;;;;;;19.98;8.43;;;16.70;73.20;;;;;;5066772;28;20172;-72
2022/03/22 08:16:32;;;;;;;17.42;8.15;;;16.20;73.40;;;;;;5061822;28;20208;-72
2022/03/22 08:18:58;;;;;;;18.13;8.10;;;16.90;73.20;;;;;;5046010;28;20246;-72
2022/03/22 08:21:24;;;;;;;15.38;8.55;;;17.60;72.30;;;;;;5068479;28;20177;-72
2022/03/22 08:23:50;;;;;;;15.23;8.73;;;18.40;70.70;;;;;;5067583;28;20265;-72
2022/03/22 08:26:16;;;;;;;14.63;8.05;;;17.90;71.80;;;;;;5050568;28;20161;-73
2022/03/22 08:28:45;;;;;;;15.55;8.77;;;17.90;71.70;;;;;;5068342;28;20217;-71
2022/03/22 08:31:13;;;;;;;19.90;9.88;;;18.70;69.70;;;;;;5065956;28;20758;-72
2022/03/22 08:33:39;;;;;;;17.23;8.20;;;19.10;69.50;;;;;;5066100;28;20219;-72
2022/03/22 08:36:05;;;;;;;21.40;9.95;;;19.60;68.00;;;;;;5066970;28;20749;-71
2022/03/22 08:38:31;;;;;;;15.27;8.63;;;18.90;68.20;;;;;;5068826;28;20248;-72
2022/03/22 08:40:58;;;;;;;19.58;8.85;;;18.80;67.40;;;;;;5061287;28;20196;-72
2022/03/22 08:43:27;;;;;;;20.17;8.40;;;17.80;67.90;;;;;;5049146;28;20165;-72
2022/03/22 08:45:54;;;;;;;13.32;8.32;;;17.90;69.60;;;;;;5061115;28;20648;-71
2022/03/22 08:48:21;;;;;;;16.35;7.32;;;17.50;67.70;;;;;;5067278;28;20211;-71
2022/03/22 08:50:50;;;;;;;15.40;8.15;;;17.70;68.50;;;;;;5064522;28;20633;-72
2022/03/22 08:53:18;;;;;;;18.25;7.78;;;18.10;67.50;;;;;;5065160;28;20246;-73
2022/03/22 08:55:45;;;;;;;12.02;7.72;;;17.60;67.90;;;;;;5068300;28;20157;-74
2022/03/22 08:58:12;;;;;;;15.30;7.60;;;17.80;68.10;;;;;;5067699;28;20235;-73
2022/03/22 09:00:38;;;;;;;13.73;7.47;;;17.90;67.00;;;;;;5067180;28;20520;-72
2022/03/22 09:03:05;;;;;;;9.60;6.30;;;19.20;65.00;;;;;;5034028;28;20222;-72
2022/03/22 09:08:17;;;;;;;10.63;6.68;;;18.20;64.50;;;;;;5067562;28;20214;-71
2022/03/22 09:10:46;;;;;;;10.30;6.55;;;18.10;66.90;;;;;;5068038;28;20180;-72
2022/03/22 09:13:12;;;;;;;11.23;6.25;;;18.40;63.00;;;;;;5067092;28;20205;-71
2022/03/22 09:15:39;;;;;;;11.68;7.57;;;17.90;62.70;;;;;;5066997;28;20192;-72
2022/03/22 09:18:16;;;;;;;8.45;5.28;;;19.50;65.40;;;;;;5063428;28;20192;-73
2022/03/22 09:20:44;;;;;;;14.23;5.20;;;19.00;60.10;;;;;;5049351;28;20187;-72
2022/03/22 09:23:11;;;;;;;6.30;4.18;;;18.80;58.70;;;;;;5062127;28;20537;-73
2022/03/22 09:25:38;;;;;;;7.20;4.55;;;18.90;57.00;;;;;;5063024;28;20200;-72
2022/03/22 09:28:05;;;;;;;7.35;4.82;;;18.70;56.90;;;;;;5053613;28;20166;-72
2022/03/22 09:30:35;;;;;;;6.70;3.90;;;19.70;55.40;;;;;;5055098;28;20196;-71
2022/03/22 09:33:02;;;;;;;6.60;4.20;;;19.20;56.60;;;;;;5066117;28;20296;-72
2022/03/22 09:35:28;;;;;;;10.30;5.30;;;20.20;55.10;;;;;;5068241;28;20165;-73
2022/03/22 09:37:55;;;;;;;8.45;5.50;;;19.70;56.10;;;;;;5060391;28;20186;-72
2022/03/22 09:40:25;;;;;;;6.75;4.47;;;19.60;56.50;;;;;;5065620;28;20196;-71
2022/03/22 09:42:50;;;;;;;7.15;4.35;;;19.30;57.30;;;;;;5063049;28;20677;-72
2022/03/22 09:45:21;;;;;;;8.60;5.68;;;18.60;57.10;;;;;;5068331;28;20161;-72
2022/03/22 09:47:47;;;;;;;7.00;5.28;;;19.10;57.50;;;;;;5067391;28;20192;-71
2022/03/22 09:50:16;;;;;;;9.88;5.18;;;18.30;57.10;;;;;;5055480;28;20205;-71
2022/03/22 09:52:43;;;;;;;9.82;5.63;;;17.80;58.70;;;;;;5047664;28;20193;-71
2022/03/22 09:55:11;;;;;;;9.02;5.05;;;17.60;58.40;;;;;;5047697;28;20299;-71
2022/03/22 09:57:37;;;;;;;10.07;6.38;;;17.60;61.00;;;;;;5064834;28;20216;-72
2022/03/22 10:00:07;;;;;;;6.47;5.15;;;18.10;58.80;;;;;;5067319;28;20224;-72
2022/03/22 10:02:35;;;;;;;7.60;5.78;;;18.70;58.00;;;;;;5060693;28;20197;-72
2022/03/22 10:05:04;;;;;;;9.30;5.10;;;17.20;58.60;;;;;;5052054;28;20161;-72
2022/03/22 10:07:29;;;;;;;8.77;6.05;;;17.30;59.40;;;;;;5064310;28;20231;-73
2022/03/22 10:10:05;;;;;;;9.05;5.90;;;17.60;57.90;;;;;;5078348;28;20187;-73
2022/03/22 10:12:36;;;;;;;10.13;5.70;;;17.50;57.90;;;;;;5091835;28;20262;-71
2022/03/22 10:15:13;;;;;;;6.30;5.28;;;17.80;58.30;;;;;;5088265;28;20202;-71
2022/03/22 10:17:40;;;;;;;9.02;6.00;;;18.50;57.00;;;;;;5091382;28;20186;-71
2022/03/22 10:20:08;;;;;;;7.57;4.97;;;18.80;56.90;;;;;;5077186;28;20160;-71
2022/03/22 10:22:35;;;;;;;9.63;5.93;;;18.50;56.20;;;;;;5063341;28;20193;-71
2022/03/22 10:25:05;;;;;;;9.00;6.30;;;18.50;56.20;;;;;;5073615;28;20172;-71
2022/03/22 10:27:35;;;;;;;7.82;5.50;;;17.30;57.20;;;;;;5091566;28;20188;-70
2022/03/22 10:30:05;;;;;;;12.27;5.57;;;16.10;58.50;;;;;;5091203;28;20160;-70
2022/03/22 10:32:40;;;;;;;9.27;5.80;;;16.10;59.20;;;;;;5091650;28;20206;-71
2022/03/22 10:35:26;;;;;;;7.32;5.70;;;16.40;62.50;;;;;;5091613;28;20155;-71
2022/03/22 10:38:06;;;;;;;8.60;5.70;;;16.70;58.30;;;;;;5091542;28;20195;-71
2022/03/22 10:40:32;;;;;;;9.25;5.43;;;16.20;57.80;;;;;;5090929;28;20206;-72
2022/03/22 10:43:04;;;;;;;9.25;5.25;;;17.00;57.90;;;;;;5091414;28;20259;-71
2022/03/22 10:45:42;;;;;;;9.57;5.38;;;17.20;60.40;;;;;;5091214;28;20211;-70
2022/03/22 10:48:08;;;;;;;9.07;5.35;;;16.80;58.70;;;;;;5091344;28;20188;-71
2022/03/22 10:50:38;;;;;;;7.82;5.53;;;17.00;58.30;;;;;;5090920;28;20530;-70
2022/03/22 10:53:05;;;;;;;7.57;5.25;;;16.30;58.50;;;;;;5091237;28;20184;-71
2022/03/22 10:55:31;;;;;;;8.48;4.97;;;16.80;60.40;;;;;;5091200;28;20156;-71
2022/03/22 10:57:58;;;;;;;8.23;5.40;;;17.80;59.70;;;;;;5069372;28;20240;-72
2022/03/22 11:00:26;;;;;;;8.00;5.22;;;17.40;58.50;;;;;;5070500;28;20164;-72
2022/03/22 11:02:54;;;;;;;11.85;5.03;;;16.60;57.90;;;;;;5071084;28;20157;-72
2022/03/22 11:05:22;;;;;;;7.93;5.50;;;16.20;58.60;;;;;;5071031;28;20168;-71
2022/03/22 11:07:52;;;;;;;9.07;5.43;;;16.50;58.90;;;;;;5070836;28;20230;-72
2022/03/22 11:10:29;;;;;;;7.85;5.70;;;16.90;63.10;;;;;;5070546;28;20189;-70
2022/03/22 11:12:59;;;;;;;6.75;5.18;;;17.40;57.90;;;;;;5070909;28;20212;-71
2022/03/22 11:15:35;;;;;;;9.32;5.82;;;17.60;58.50;;;;;;5070136;28;20161;-71
2022/03/22 11:18:03;;;;;;;8.10;5.18;;;17.50;57.90;;;;;;5070697;28;20267;-72
2022/03/22 11:20:29;;;;;;;7.68;5.10;;;18.50;57.40;;;;;;5052906;28;20170;-72
2022/03/22 11:22:57;;;;;;;7.30;5.50;;;19.00;56.10;;;;;;5050757;28;20253;-72
2022/03/22 11:25:30;;;;;;;8.38;5.20;;;19.40;57.40;;;;;;5049340;28;20173;-72
2022/03/22 11:28:07;;;;;;;7.63;5.13;;;18.30;57.50;;;;;;5050364;28;20204;-71
2022/03/22 11:30:34;;;;;;;7.20;5.35;;;18.80;59.00;;;;;;5050066;28;20618;-71
2022/03/22 11:35:47;;;;;;;6.82;5.25;;;17.30;56.90;;;;;;5050656;28;20264;-71
2022/03/22 11:38:39;;;;;;;8.43;5.75;;;17.10;57.20;;;;;;5051571;28;20395;-70
2022/03/22 11:44:02;;;;;;;8.38;4.72;;;17.40;56.90;;;;;;5061972;28;20206;-71
2022/03/22 11:46:33;;;;;;;9.10;4.50;;;17.70;58.50;;;;;;5047489;28;20200;-73
2022/03/22 11:49:21;;;;;;;7.45;4.50;;;18.10;55.80;;;;;;5048769;28;20169;-71
2022/03/22 11:51:54;;;;;;;7.05;5.03;;;17.90;59.90;;;;;;5049917;28;20160;-71
2022/03/22 11:54:22;;;;;;;8.25;4.13;;;18.80;53.10;;;;;;5048719;28;20215;-71
2022/03/22 11:56:55;;;;;;;6.43;4.22;;;18.60;53.30;;;;;;5050173;28;20554;-72
2022/03/22 11:59:22;;;;;;;12.75;5.18;;;18.40;51.70;;;;;;5070620;28;20235;-71
2022/03/22 12:02:05;;;;;;;8.73;4.43;;;18.50;51.80;;;;;;5082244;28;20232;-72
2022/03/22 12:04:40;;;;;;;8.38;4.50;;;18.30;52.70;;;;;;5089806;28;20191;-71
2022/03/22 12:07:09;;;;;;;6.38;4.10;;;19.10;54.30;;;;;;5089714;28;20155;-72
2022/03/22 12:09:39;;;;;;;6.53;4.28;;;19.90;51.50;;;;;;5089547;28;20243;-72
2022/03/22 12:12:06;;;;;;;5.55;4.28;;;18.60;53.20;;;;;;5089628;28;20270;-72
2022/03/22 12:14:34;;;;;;;6.10;4.05;;;17.40;53.90;;;;;;5089715;28;20187;-72
2022/03/22 12:17:01;;;;;;;6.32;4.55;;;18.90;54.80;;;;;;5089220;28;20151;-72
2022/03/22 12:19:30;;;;;;;7.13;5.13;;;20.00;54.50;;;;;;5079461;28;20181;-72
2022/03/22 12:22:00;;;;;;;14.10;5.10;;;20.40;52.50;;;;;;5039059;28;20207;-72
2022/03/22 12:24:30;;;;;;;5.57;4.15;;;20.10;54.30;;;;;;5068968;28;20601;-71
2022/03/22 12:26:58;;;;;;;5.72;4.70;;;19.20;55.30;;;;;;5068678;28;20232;-72
2022/03/22 12:29:25;;;;;;;6.00;4.60;;;19.30;53.90;;;;;;5069735;28;20504;-71
2022/03/22 12:31:53;;;;;;;8.32;4.57;;;17.60;54.50;;;;;;5068939;28;20172;-71
2022/03/22 12:34:23;;;;;;;9.15;4.80;;;16.90;56.50;;;;;;5069352;28;20188;-72
2022/03/22 12:36:49;;;;;;;13.30;6.63;;;16.40;58.10;;;;;;5069296;28;20172;-71
2022/03/22 12:39:15;;;;;;;12.68;5.40;;;15.30;58.80;;;;;;5069497;28;20153;-71
2022/03/22 12:41:43;;;;;;;6.25;4.72;;;14.90;60.60;;;;;;5069376;28;20213;-71
2022/03/22 12:44:09;;;;;;;11.05;4.53;;;14.90;60.50;;;;;;5069118;28;20215;-71
2022/03/22 12:46:35;;;;;;;8.45;4.78;;;14.80;59.00;;;;;;5068823;28;20196;-71
2022/03/22 12:49:03;;;;;;;4.75;3.88;;;15.10;63.10;;;;;;5068833;28;20164;-71
2022/03/22 12:51:31;;;;;;;6.35;3.90;;;15.30;57.00;;;;;;5068725;28;20653;-71
2022/03/22 12:54:01;;;;;;;12.77;4.60;;;14.90;58.40;;;;;;5068972;28;20212;-71
2022/03/22 12:56:31;;;;;;;8.02;4.90;;;14.60;59.70;;;;;;5068773;28;20637;-71
2022/03/22 12:58:57;;;;;;;6.82;5.00;;;14.30;58.90;;;;;;5050761;28;20250;-71
2022/03/22 13:01:24;;;;;;;6.05;4.40;;;14.10;60.00;;;;;;5068789;28;20238;-71
2022/03/22 13:03:50;;;;;;;10.00;5.22;;;14.10;60.80;;;;;;5068894;28;20187;-71
2022/03/22 13:06:17;;;;;;;8.25;4.35;;;14.20;59.70;;;;;;5068763;28;20160;-71
2022/03/22 13:11:29;;;;;;;6.40;4.30;;;14.20;60.50;;;;;;5068941;28;20213;-71
2022/03/22 13:16:42;;;;;;;7.13;4.40;;;13.60;60.00;;;;;;5053739;28;20163;-71
2022/03/22 13:19:09;;;;;;;6.85;4.70;;;13.70;64.00;;;;;;5068573;28;20172;-71
2022/03/22 13:21:37;;;;;;;7.55;4.85;;;13.80;60.20;;;;;;5031817;28;20208;-71
2022/03/22 13:24:12;;;;;;;10.85;4.63;;;13.70;59.20;;;;;;5048839;28;20164;-72
2022/03/22 13:26:53;;;;;;;10.40;4.20;;;13.50;61.80;;;;;;5048795;28;20252;-71